Time;durP1;ratioP1;P1;durP2;ratioP2;P2;SDS_P1;SDS_P2;PMS_P1;PMS_P2;Temp;Humidity;BMP_temperature;BMP_pressure;BME280_temperature;BME280_humidity;BME280_pressure;Samples;Min_cycle;Max_cycle;Signal;HPM_P1;HPM_P2
2021/12/13 00:00:29;;;;;;;;;;;;;;;16.01;100.00;102337.84;5075076;28;19921;-49
2021/12/13 00:03:01;;;;;;;;;;;;;;;15.91;100.00;102332.81;5075257;28;19927;-50
2021/12/13 00:05:33;;;;;;;;;;;;;;;15.98;100.00;102332.84;5075110;28;19920;-50
2021/12/13 00:08:00;;;;;;;;;;;;;;;15.97;100.00;102333.88;5075312;28;19924;-54
2021/12/13 00:10:31;;;;;;;;;;;;;;;16.09;100.00;102336.88;5075664;28;20291;-48
2021/12/13 00:13:03;;;;;;;;;;;;;;;15.62;100.00;102334.56;5074871;28;19926;-54
2021/12/13 00:15:32;;;;;;;;;;;;;;;15.86;100.00;102335.19;5073607;28;19925;-53
2021/12/13 00:17:58;;;;;;;;;;;;;;;16.07;100.00;102330.84;5075325;28;19973;-48
2021/12/13 00:20:29;;;;;;;;;;;;;;;16.10;100.00;102341.22;5074695;28;20399;-52
2021/12/13 00:23:00;;;;;;;;;;;;;;;16.08;100.00;102337.91;5075409;28;19927;-51
2021/12/13 00:25:27;;;;;;;;;;;;;;;15.89;100.00;102340.22;5074865;28;19920;-49
2021/12/13 00:28:14;;;;;;;;;;;;;;;16.20;100.00;102357.94;5073558;28;19928;-54
2021/12/13 00:30:58;;;;;;;;;;;;;;;15.92;100.00;102341.72;5073407;28;19967;-51
2021/12/13 00:33:36;;;;;;;;;;;;;;;16.18;100.00;102341.09;5074432;28;19920;-49
2021/12/13 00:36:05;;;;;;;;;;;;;;;15.93;100.00;102346.09;5074234;28;19920;-49
2021/12/13 00:38:33;;;;;;;;;;;;;;;15.97;100.00;102341.16;5073151;28;20292;-48
2021/12/13 00:41:07;;;;;;;;;;;;;;;16.04;100.00;102353.66;5074373;28;19920;-49
2021/12/13 00:43:35;;;;;;;;;;;;;;;16.21;100.00;102353.34;5074128;28;19966;-47
2021/12/13 00:46:02;;;;;;;;;;;;;;;16.37;100.00;102357.63;5074816;28;19927;-49
2021/12/13 00:48:29;;;;;;;;;;;;;;;16.24;100.00;102357.53;5074352;28;19916;-48
2021/12/13 00:51:00;;;;;;;;;;;;;;;16.23;100.00;102361.28;5072642;28;19979;-53
2021/12/13 00:53:32;;;;;;;;;;;;;;;15.88;100.00;102362.00;5073055;28;20365;-54
2021/12/13 00:55:59;;;;;;;;;;;;;;;15.86;100.00;102362.19;5074507;28;19920;-52
2021/12/13 00:58:24;;;;;;;;;;;;;;;15.83;100.00;102359.88;5074689;28;19924;-54
2021/12/13 01:00:50;;;;;;;;;;;;;;;15.63;100.00;102359.69;5074094;28;20459;-51
2021/12/13 01:03:21;;;;;;;;;;;;;;;15.86;100.00;102366.75;5072793;28;19916;-54
2021/12/13 01:05:56;;;;;;;;;;;;;;;15.86;100.00;102362.19;5074225;28;20360;-51
2021/12/13 01:08:40;;;;;;;;;;;;;;;16.04;100.00;102363.63;5073921;28;20380;-54
2021/12/13 01:11:11;;;;;;;;;;;;;;;15.91;100.00;102375.97;5074110;28;19927;-52
2021/12/13 01:13:46;;;;;;;;;;;;;;;15.75;100.00;102365.41;5074250;28;19920;-52
2021/12/13 01:16:35;;;;;;;;;;;;;;;16.00;100.00;102367.72;5074441;28;19932;-54
2021/12/13 01:21:55;;;;;;;;;;;;;;;16.30;100.00;102360.28;5074512;28;20011;-51
2021/12/13 01:24:42;;;;;;;;;;;;;;;16.12;100.00;102373.44;5072967;28;19962;-53
2021/12/13 01:27:07;;;;;;;;;;;;;;;15.83;100.00;102367.97;5072975;28;20249;-51
2021/12/13 01:29:32;;;;;;;;;;;;;;;15.99;100.00;102366.06;5073475;28;19920;-47
2021/12/13 01:31:59;;;;;;;;;;;;;;;15.95;100.00;102373.69;5073821;28;19929;-50
2021/12/13 01:34:26;;;;;;;;;;;;;;;16.10;100.00;102379.00;5072512;28;19920;-47
2021/12/13 01:37:07;;;;;;;;;;;;;;;15.88;100.00;102376.34;5073308;28;19985;-53
2021/12/13 01:39:33;;;;;;;;;;;;;;;15.59;100.00;102388.06;5073074;28;19921;-52
2021/12/13 01:42:02;;;;;;;;;;;;;;;15.63;100.00;102392.88;5072169;28;19920;-52
2021/12/13 01:44:30;;;;;;;;;;;;;;;15.67;100.00;102390.63;5073596;28;20292;-53
2021/12/13 01:46:58;;;;;;;;;;;;;;;15.48;100.00;102386.72;5074207;28;19935;-49
2021/12/13 01:49:27;;;;;;;;;;;;;;;15.63;100.00;102392.88;5072099;28;19928;-50
2021/12/13 01:51:52;;;;;;;;;;;;;;;15.68;100.00;102392.31;5055262;28;19920;-50
2021/12/13 01:54:20;;;;;;;;;;;;;;;15.71;100.00;102391.91;5072914;28;19928;-48
2021/12/13 01:57:09;;;;;;;;;;;;;;;15.79;100.00;102396.34;5073120;28;20007;-54
2021/12/13 01:59:44;;;;;;;;;;;;;;;15.49;100.00;102399.97;5073121;28;19920;-52
2021/12/13 02:02:09;;;;;;;;;;;;;;;15.45;100.00;102398.69;5073708;28;19920;-53
2021/12/13 02:04:35;;;;;;;;;;;;;;;15.68;100.00;102386.06;5073746;28;20019;-53
2021/12/13 02:07:03;;;;;;;;;;;;;;;15.60;100.00;102398.66;5071945;28;20386;-52
2021/12/13 02:09:33;;;;;;;;;;;;;;;15.55;100.00;102398.38;5073028;28;19962;-51
2021/12/13 02:12:01;;;;;;;;;;;;;;;15.48;100.00;102386.72;5073066;28;20028;-54
2021/12/13 02:14:29;;;;;;;;;;;;;;;15.26;100.00;102386.66;5073507;28;19956;-53
2021/12/13 02:19:32;;;;;;;;;;;;;;;15.67;100.00;102385.25;5071888;28;19920;-54
2021/12/13 02:22:09;;;;;;;;;;;;;;;15.49;100.00;102391.06;5072405;28;19921;-49
2021/12/13 02:24:36;;;;;;;;;;;;;;;15.57;100.00;102390.94;5073686;28;19974;-53
2021/12/13 02:27:03;;;;;;;;;;;;;;;15.60;100.00;102387.88;5055084;28;20006;-47
2021/12/13 02:29:35;;;;;;;;;;;;;;;15.51;100.00;102386.31;5071550;28;20315;-47
2021/12/13 02:32:01;;;;;;;;;;;;;;;15.60;100.00;102381.66;5072814;28;19920;-48
2021/12/13 02:34:30;;;;;;;;;;;;;;;15.61;100.00;102381.44;5072688;28;20065;-51
2021/12/13 02:36:55;;;;;;;;;;;;;;;15.57;100.00;102395.50;5072656;28;19944;-52
2021/12/13 02:39:23;;;;;;;;;;;;;;;15.72;100.00;102395.47;5073329;28;20376;-49
2021/12/13 02:41:50;;;;;;;;;;;;;;;15.56;100.00;102394.66;5071773;28;19932;-50
2021/12/13 02:44:22;;;;;;;;;;;;;;;15.50;100.00;102400.84;5071675;28;19928;-47
2021/12/13 02:46:48;;;;;;;;;;;;;;;15.51;100.00;102390.88;5072689;28;19924;-49
2021/12/13 02:49:15;;;;;;;;;;;;;;;15.56;100.00;102383.03;5072731;28;19931;-48
2021/12/13 02:51:43;;;;;;;;;;;;;;;15.45;100.00;102387.06;5073104;28;19927;-53
2021/12/13 02:54:23;;;;;;;;;;;;;;;15.60;100.00;102390.56;5072815;28;19925;-50
2021/12/13 02:56:55;;;;;;;;;;;;;;;15.37;100.00;102390.72;5073390;28;20011;-51
2021/12/13 02:59:22;;;;;;;;;;;;;;;15.84;100.00;102393.09;5072614;28;19920;-50
2021/12/13 03:02:05;;;;;;;;;;;;;;;15.82;100.00;102385.19;5071554;28;19916;-54
2021/12/13 03:04:31;;;;;;;;;;;;;;;15.71;100.00;102393.78;5072798;28;19974;-53
2021/12/13 03:06:59;;;;;;;;;;;;;;;15.59;100.00;102386.19;5073759;28;19928;-54
2021/12/13 03:09:26;;;;;;;;;;;;;;;15.73;100.00;102384.47;5075576;28;19963;-53
2021/12/13 03:11:52;;;;;;;;;;;;;;;15.74;100.00;102393.41;5076663;28;19999;-49
2021/12/13 03:14:17;;;;;;;;;;;;;;;15.70;100.00;102384.84;5075041;28;19927;-50
2021/12/13 03:16:46;;;;;;;;;;;;;;;15.39;100.00;102393.22;5076173;28;20007;-52
2021/12/13 03:19:21;;;;;;;;;;;;;;;15.21;100.00;102391.75;5075150;28;19921;-51
2021/12/13 03:22:02;;;;;;;;;;;;;;;15.25;100.00;102389.53;5058913;28;19926;-51
2021/12/13 03:24:28;;;;;;;;;;;;;;;15.06;100.00;102394.47;5075464;28;19920;-54
2021/12/13 03:27:09;;;;;;;;;;;;;;;14.93;100.00;102389.75;5074882;28;19939;-53
2021/12/13 03:29:51;;;;;;;;;;;;;;;15.08;100.00;102405.09;5075014;28;20007;-48
2021/12/13 03:32:17;;;;;;;;;;;;;;;15.08;100.00;102394.31;5075851;28;20016;-53
2021/12/13 03:34:54;;;;;;;;;;;;;;;15.09;100.00;102393.28;5075842;28;20023;-52
2021/12/13 03:37:22;;;;;;;;;;;;;;;15.28;100.00;102398.09;5074761;28;19951;-51
2021/12/13 03:39:49;;;;;;;;;;;;;;;15.18;100.00;102400.22;5074576;28;19948;-53
2021/12/13 03:42:21;;;;;;;;;;;;;;;15.33;100.00;102401.03;5074609;28;19939;-51
2021/12/13 03:44:49;;;;;;;;;;;;;;;15.36;100.00;102397.16;5076257;28;20310;-51
2021/12/13 03:47:26;;;;;;;;;;;;;;;15.51;100.00;102396.25;5074305;28;19928;-55
2021/12/13 03:49:54;;;;;;;;;;;;;;;15.31;100.00;102389.63;5074456;28;19921;-52
2021/12/13 03:52:21;;;;;;;;;;;;;;;15.11;100.00;102397.47;5075177;28;19921;-52
2021/12/13 03:54:47;;;;;;;;;;;;;;;14.98;100.00;102394.59;5074575;28;20007;-51
2021/12/13 03:57:14;;;;;;;;;;;;;;;15.11;100.00;102396.63;5075617;28;19920;-51
2021/12/13 03:59:41;;;;;;;;;;;;;;;15.07;100.00;102404.22;5076052;28;19947;-53
2021/12/13 04:02:09;;;;;;;;;;;;;;;15.34;100.00;102402.72;5075805;28;19920;-51
2021/12/13 04:04:35;;;;;;;;;;;;;;;15.09;100.00;102402.19;5075119;28;19979;-53
2021/12/13 04:07:06;;;;;;;;;;;;;;;15.17;100.00;102394.03;5075130;28;20387;-51
2021/12/13 04:09:31;;;;;;;;;;;;;;;15.05;100.00;102396.34;5075043;28;19921;-48
2021/12/13 04:11:59;;;;;;;;;;;;;;;14.52;100.00;102382.94;5074020;28;19970;-50
2021/12/13 04:14:29;;;;;;;;;;;;;;;14.63;100.00;102384.34;5074934;28;20360;-51
2021/12/13 04:17:19;;;;;;;;;;;;;;;14.61;100.00;102391.78;5074982;28;19927;-52
2021/12/13 04:19:45;;;;;;;;;;;;;;;14.43;100.00;102389.44;5074234;28;19921;-53
2021/12/13 04:22:11;;;;;;;;;;;;;;;14.39;100.00;102386.25;5075377;28;19928;-54
2021/12/13 04:24:39;;;;;;;;;;;;;;;14.86;100.00;102388.84;5074110;28;19924;-50
2021/12/13 04:27:07;;;;;;;;;;;;;;;14.69;100.00;102383.59;5074782;28;19989;-47
2021/12/13 04:29:35;;;;;;;;;;;;;;;14.70;100.00;102390.66;5073932;28;19920;-47
2021/12/13 04:32:12;;;;;;;;;;;;;;;14.79;100.00;102388.75;5074810;28;20053;-47
2021/12/13 04:34:41;;;;;;;;;;;;;;;14.87;100.00;102388.63;5074602;28;19927;-46
2021/12/13 04:37:09;;;;;;;;;;;;;;;14.81;100.00;102389.38;5074043;28;20341;-49
2021/12/13 04:39:36;;;;;;;;;;;;;;;14.53;100.00;102389.16;5074513;28;19928;-48
2021/12/13 04:42:01;;;;;;;;;;;;;;;14.45;100.00;102388.22;5073711;28;19921;-51
2021/12/13 04:44:38;;;;;;;;;;;;;;;14.53;100.00;102391.84;5074588;28;20391;-48
2021/12/13 04:47:08;;;;;;;;;;;;;;;14.65;100.00;102393.06;5074463;28;19921;-48
2021/12/13 04:49:36;;;;;;;;;;;;;;;14.86;100.00;102396.91;5073063;28;20007;-48
2021/12/13 04:52:05;;;;;;;;;;;;;;;14.87;100.00;102393.19;5074040;28;20282;-47
2021/12/13 04:54:32;;;;;;;;;;;;;;;14.65;100.00;102401.16;5072987;28;19920;-51
2021/12/13 04:56:58;;;;;;;;;;;;;;;14.70;100.00;102398.72;5074767;28;19952;-49
2021/12/13 04:59:24;;;;;;;;;;;;;;;14.61;100.00;102397.97;5074157;28;20411;-53
2021/12/13 05:01:53;;;;;;;;;;;;;;;14.70;100.00;102401.41;5074161;28;20392;-51
2021/12/13 05:04:20;;;;;;;;;;;;;;;14.72;100.00;102399.41;5074173;28;19975;-51
2021/12/13 05:06:45;;;;;;;;;;;;;;;14.59;100.00;102405.41;5073952;28;19966;-55
2021/12/13 05:09:16;;;;;;;;;;;;;;;14.33;100.00;102401.28;5072787;28;19928;-52
2021/12/13 05:11:44;;;;;;;;;;;;;;;14.60;100.00;102401.69;5074284;28;19920;-52
2021/12/13 05:14:10;;;;;;;;;;;;;;;14.43;100.00;102401.03;5074194;28;19920;-50
2021/12/13 05:16:35;;;;;;;;;;;;;;;14.46;100.00;102407.91;5072501;28;20277;-52
2021/12/13 05:19:01;;;;;;;;;;;;;;;14.52;100.00;102411.69;5072640;28;19920;-54
2021/12/13 05:21:31;;;;;;;;;;;;;;;14.51;100.00;102404.66;5073717;28;19921;-50
2021/12/13 05:23:59;;;;;;;;;;;;;;;14.44;100.00;102402.69;5056017;28;20307;-52
2021/12/13 05:26:42;;;;;;;;;;;;;;;14.60;100.00;102400.88;5073679;28;20031;-54
2021/12/13 05:29:21;;;;;;;;;;;;;;;14.48;100.00;102400.47;5072813;28;20469;-51
2021/12/13 05:31:55;;;;;;;;;;;;;;;14.61;100.00;102397.97;5072681;28;20333;-53
2021/12/13 05:34:21;;;;;;;;;;;;;;;14.82;100.00;102404.53;5072730;28;19928;-52
2021/12/13 05:36:54;;;;;;;;;;;;;;;14.53;100.00;102402.59;5073240;28;20233;-53
2021/12/13 05:39:20;;;;;;;;;;;;;;;14.49;100.00;102405.66;5073383;28;19967;-52
2021/12/13 05:41:51;;;;;;;;;;;;;;;14.57;100.00;102412.00;5071868;28;19955;-52
2021/12/13 05:44:21;;;;;;;;;;;;;;;14.66;100.00;102410.91;5073515;28;19931;-54
2021/12/13 05:46:48;;;;;;;;;;;;;;;14.63;100.00;102405.88;5071961;28;20376;-49
2021/12/13 05:49:30;;;;;;;;;;;;;;;14.69;100.00;102410.53;5055849;28;20354;-51
2021/12/13 05:52:04;;;;;;;;;;;;;;;14.39;100.00;102404.25;5073581;28;20213;-52
2021/12/13 05:54:31;;;;;;;;;;;;;;;14.48;100.00;102405.88;5073141;28;20440;-52
2021/12/13 05:56:59;;;;;;;;;;;;;;;14.62;100.00;102409.59;5073097;28;19921;-48
2021/12/13 05:59:27;;;;;;;;;;;;;;;14.58;100.00;102413.69;5072847;28;19920;-51
2021/12/13 06:02:02;;;;;;;;;;;;;;;14.42;100.00;102415.50;5073041;28;20011;-52
2021/12/13 06:04:36;;;;;;;;;;;;;;;14.47;100.00;102417.66;5073505;28;19959;-48
2021/12/13 06:07:11;;;;;;;;;;;;;;;14.73;100.00;102417.25;5072993;28;20047;-53
2021/12/13 06:09:39;;;;;;;;;;;;;;;14.41;100.00;102419.22;5073386;28;19920;-47
2021/12/13 06:12:07;;;;;;;;;;;;;;;14.22;100.00;102425.94;5071729;28;19947;-52
2021/12/13 06:14:33;;;;;;;;;;;;;;;14.38;100.00;102414.19;5072774;28;19920;-50
2021/12/13 06:17:07;;;;;;;;;;;;;;;14.53;100.00;102424.13;5055722;28;19935;-50
2021/12/13 06:19:48;;;;;;;;;;;;;;;14.58;100.00;102424.44;5072923;28;19940;-48
2021/12/13 06:22:20;;;;;;;;;;;;;;;14.59;100.00;102426.13;5073456;28;20271;-47
2021/12/13 06:24:58;;;;;;;;;;;;;;;14.58;100.00;102438.72;5055060;28;19959;-47
2021/12/13 06:27:26;;;;;;;;;;;;;;;14.72;100.00;102429.03;5072807;28;19924;-49
2021/12/13 06:30:06;;;;;;;;;;;;;;;14.63;100.00;102433.63;5071757;28;20007;-52
2021/12/13 06:32:32;;;;;;;;;;;;;;;14.68;100.00;102430.41;5072646;28;20035;-51
2021/12/13 06:34:59;;;;;;;;;;;;;;;14.68;100.00;102432.25;5072957;28;20007;-52
2021/12/13 06:37:26;;;;;;;;;;;;;;;14.73;100.00;102441.47;5071939;28;19924;-47
2021/12/13 06:39:52;;;;;;;;;;;;;;;14.66;100.00;102431.63;5054980;28;19977;-48
2021/12/13 06:42:24;;;;;;;;;;;;;;;14.54;100.00;102434.75;5075205;28;20408;-53
2021/12/13 06:44:50;;;;;;;;;;;;;;;14.61;100.00;102434.84;5076965;28;20379;-50
2021/12/13 06:47:17;;;;;;;;;;;;;;;14.79;100.00;102436.41;5076945;28;19920;-53
2021/12/13 06:49:52;;;;;;;;;;;;;;;14.57;100.00;102445.13;5075926;28;19921;-52
2021/12/13 06:52:22;;;;;;;;;;;;;;;14.38;100.00;102445.66;5076701;28;19920;-53
2021/12/13 06:54:53;;;;;;;;;;;;;;;14.38;100.00;102449.19;5075476;28;20134;-52
2021/12/13 06:57:21;;;;;;;;;;;;;;;14.52;100.00;102449.38;5076343;28;19977;-50
2021/12/13 06:59:49;;;;;;;;;;;;;;;14.45;100.00;102463.59;5076235;28;19923;-50
2021/12/13 07:02:20;;;;;;;;;;;;;;;14.34;100.00;102455.97;5076605;28;20014;-51
2021/12/13 07:04:51;;;;;;;;;;;;;;;14.26;100.00;102450.63;5075413;28;19920;-50
2021/12/13 07:07:17;;;;;;;;;;;;;;;14.43;100.00;102454.84;5076874;28;20338;-50
2021/12/13 07:09:54;;;;;;;;;;;;;;;14.37;100.00;102452.91;5076425;28;19923;-52
2021/12/13 07:12:20;;;;;;;;;;;;;;;14.43;100.00;102454.84;5074727;28;19927;-53
2021/12/13 07:14:46;;;;;;;;;;;;;;;14.37;100.00;102458.28;5074557;28;19924;-53
2021/12/13 07:17:18;;;;;;;;;;;;;;;14.70;100.00;102457.16;5074841;28;20292;-52
2021/12/13 07:19:45;;;;;;;;;;;;;;;14.49;100.00;102454.13;5075393;28;20277;-54
2021/12/13 07:22:15;;;;;;;;;;;;;;;14.47;100.00;102445.41;5076443;28;20357;-52
2021/12/13 07:24:46;;;;;;;;;;;;;;;14.74;100.00;102453.91;5074712;28;20376;-52
2021/12/13 07:27:20;;;;;;;;;;;;;;;14.75;100.00;102452.91;5075181;28;20277;-51
2021/12/13 07:29:46;;;;;;;;;;;;;;;14.69;100.00;102459.00;5075874;28;19928;-51
2021/12/13 07:32:17;;;;;;;;;;;;;;;14.71;100.00;102456.16;5076313;28;19917;-51
2021/12/13 07:35:05;;;;;;;;;;;;;;;14.87;100.00;102461.34;5075809;28;19920;-51
2021/12/13 07:37:43;;;;;;;;;;;;;;;14.74;100.00;102458.47;5073291;28;19927;-51
2021/12/13 07:40:24;;;;;;;;;;;;;;;14.83;100.00;102467.31;5076049;28;19925;-51
2021/12/13 07:43:01;;;;;;;;;;;;;;;14.81;100.00;102477.44;5074663;28;20344;-48
2021/12/13 07:45:30;;;;;;;;;;;;;;;14.74;100.00;102470.06;5075522;28;19967;-48
2021/12/13 07:47:57;;;;;;;;;;;;;;;15.03;100.00;102481.94;5074903;28;19947;-47
2021/12/13 07:50:22;;;;;;;;;;;;;;;14.97;100.00;102476.44;5075060;28;19923;-50
2021/12/13 07:52:52;;;;;;;;;;;;;;;14.66;100.00;102483.59;5073693;28;19925;-49
2021/12/13 07:55:22;;;;;;;;;;;;;;;14.63;100.00;102473.19;5073330;28;19924;-49
2021/12/13 07:57:48;;;;;;;;;;;;;;;14.41;100.00;102483.81;5074705;28;19920;-50
2021/12/13 08:00:17;;;;;;;;;;;;;;;14.37;100.00;102478.97;5074729;28;20005;-51
2021/12/13 08:02:52;;;;;;;;;;;;;;;14.42;100.00;102482.78;5074073;28;19967;-51
2021/12/13 08:05:22;;;;;;;;;;;;;;;14.62;100.00;102480.41;5056587;28;19959;-52
2021/12/13 08:07:50;;;;;;;;;;;;;;;14.39;100.00;102485.00;5072742;28;20372;-53
2021/12/13 08:10:23;;;;;;;;;;;;;;;14.34;100.00;102494.44;5074338;28;19931;-51
2021/12/13 08:12:52;;;;;;;;;;;;;;;14.41;100.00;102482.97;5072935;28;19947;-50
2021/12/13 08:15:33;;;;;;;;;;;;;;;14.67;100.00;102492.53;5073831;28;20356;-49
2021/12/13 08:18:00;;;;;;;;;;;;;;;14.80;100.00;102484.66;5074336;28;19950;-50
2021/12/13 08:20:35;;;;;;;;;;;;;;;14.88;100.00;102486.44;5073566;28;19924;-47
2021/12/13 08:23:01;;;;;;;;;;;;;;;14.72;100.00;102487.44;5056147;28;20384;-50
2021/12/13 08:25:31;;;;;;;;;;;;;;;14.58;100.00;102483.69;5073796;28;19981;-51
2021/12/13 08:28:03;;;;;;;;;;;;;;;14.54;100.00;102490.44;5073880;28;19920;-53
2021/12/13 08:30:43;;;;;;;;;;;;;;;14.52;100.00;102492.47;5073912;28;20052;-53
2021/12/13 08:33:12;;;;;;;;;;;;;;;14.82;100.00;102485.31;5072586;28;19928;-50
2021/12/13 08:35:55;;;;;;;;;;;;;;;14.65;100.00;102487.31;5073959;28;19921;-48
2021/12/13 08:38:24;;;;;;;;;;;;;;;14.55;100.00;102492.94;5074089;28;19920;-52
2021/12/13 08:40:49;;;;;;;;;;;;;;;14.43;100.00;102483.66;5073391;28;19925;-51
2021/12/13 08:43:15;;;;;;;;;;;;;;;14.47;100.00;102483.06;5073848;28;19927;-50
2021/12/13 08:45:41;;;;;;;;;;;;;;;14.61;100.00;102481.44;5073817;28;19932;-50
2021/12/13 08:48:20;;;;;;;;;;;;;;;14.79;100.00;102479.47;5073742;28;19924;-48
2021/12/13 08:50:50;;;;;;;;;;;;;;;14.71;100.00;102486.59;5007378;28;1868319;-54
2021/12/13 08:53:24;;;;;;;;;;;;;;;14.59;100.00;102491.56;5073334;28;19921;-51
2021/12/13 08:55:54;;;;;;;;;;;;;;;14.74;100.00;102483.53;5074718;28;19920;-55
2021/12/13 08:58:20;;;;;;;;;;;;;;;14.76;100.00;102491.44;5072791;28;19927;-55
2021/12/13 09:00:45;;;;;;;;;;;;;;;14.68;100.00;102495.03;5073479;28;19925;-53
2021/12/13 09:03:14;;;;;;;;;;;;;;;14.71;100.00;102491.16;5073726;28;20330;-50
2021/12/13 09:05:47;;;;;;;;;;;;;;;14.76;100.00;102491.44;5056476;28;19974;-54
2021/12/13 09:08:14;;;;;;;;;;;;;;;14.79;100.00;102495.66;5074665;28;19920;-54
2021/12/13 09:10:40;;;;;;;;;;;;;;;14.59;100.00;102506.88;5073824;28;19977;-52
2021/12/13 09:13:05;;;;;;;;;;;;;;;14.65;100.00;102522.31;5073644;28;19924;-50
2021/12/13 09:15:34;;;;;;;;;;;;;;;14.54;100.00;102514.69;5074044;28;20452;-50
2021/12/13 09:18:00;;;;;;;;;;;;;;;14.54;100.00;102518.19;5074303;28;20022;-51
2021/12/13 09:20:29;;;;;;;;;;;;;;;14.63;100.00;102525.16;5073768;28;19928;-53
2021/12/13 09:22:54;;;;;;;;;;;;;;;14.46;100.00;102535.25;5073706;28;19920;-51
2021/12/13 09:25:25;;;;;;;;;;;;;;;14.54;100.00;102534.34;5073825;28;19920;-54
2021/12/13 09:28:03;;;;;;;;;;;;;;;14.59;100.00;102533.81;5073582;28;19943;-51
2021/12/13 09:30:44;;;;;;;;;;;;;;;14.64;100.00;102547.56;5073683;28;19986;-55
2021/12/13 09:33:12;;;;;;;;;;;;;;;14.47;100.00;102553.06;5073473;28;19924;-51
2021/12/13 09:35:43;;;;;;;;;;;;;;;14.40;100.00;102551.25;5073249;28;19916;-56
2021/12/13 09:38:21;;;;;;;;;;;;;;;14.73;100.00;102551.88;5055466;28;19971;-53
2021/12/13 09:41:05;;;;;;;;;;;;;;;14.59;100.00;102548.09;5073283;28;19990;-53
2021/12/13 09:43:37;;;;;;;;;;;;;;;14.87;100.00;102562.88;5073784;28;19924;-53
2021/12/13 09:46:03;;;;;;;;;;;;;;;14.90;100.00;102568.75;5073275;28;20373;-50
2021/12/13 09:48:31;;;;;;;;;;;;;;;14.85;100.00;102562.25;5073145;28;19920;-50
2021/12/13 09:50:58;;;;;;;;;;;;;;;14.94;100.00;102555.75;5072896;28;20340;-51
2021/12/13 09:53:26;;;;;;;;;;;;;;;14.83;100.00;102565.09;5073131;28;19936;-52
2021/12/13 09:55:52;;;;;;;;;;;;;;;14.77;100.00;102571.22;5071803;28;19920;-52
2021/12/13 09:58:20;;;;;;;;;;;;;;;14.77;100.00;102565.84;5072008;28;19920;-50
2021/12/13 10:00:45;;;;;;;;;;;;;;;14.58;100.00;102564.44;5073097;28;19935;-51
2021/12/13 10:03:17;;;;;;;;;;;;;;;14.33;100.00;102568.13;5071805;28;19920;-53
2021/12/13 10:05:45;;;;;;;;;;;;;;;14.68;100.00;102567.72;5073257;28;19920;-53
2021/12/13 10:08:14;;;;;;;;;;;;;;;15.05;100.00;102570.63;5072983;28;20364;-52
2021/12/13 10:10:45;;;;;;;;;;;;;;;14.94;100.00;102569.22;5073199;28;20000;-52
2021/12/13 10:13:14;;;;;;;;;;;;;;;14.81;100.00;102563.63;5072861;28;20343;-54
2021/12/13 10:15:42;;;;;;;;;;;;;;;14.89;100.00;102572.47;5073296;28;19920;-50
2021/12/13 10:18:10;;;;;;;;;;;;;;;15.03;100.00;102569.97;5055227;28;19921;-49
2021/12/13 10:20:35;;;;;;;;;;;;;;;15.16;100.00;102582.81;5072867;28;19920;-47
2021/12/13 10:23:01;;;;;;;;;;;;;;;15.21;100.00;102569.63;5071858;28;19924;-54
2021/12/13 10:25:30;;;;;;;;;;;;;;;14.94;100.00;102563.81;5073627;28;19927;-52
2021/12/13 10:28:01;;;;;;;;;;;;;;;15.15;100.00;102559.59;5072974;28;19921;-52
2021/12/13 10:30:29;;;;;;;;;;;;;;;14.94;100.00;102553.06;5073296;28;19920;-52
2021/12/13 10:32:55;;;;;;;;;;;;;;;14.84;100.00;102555.19;5072925;28;19986;-50
2021/12/13 10:35:22;;;;;;;;;;;;;;;14.88;100.00;102557.34;5071932;28;20016;-53
2021/12/13 10:37:50;;;;;;;;;;;;;;;14.79;100.00;102550.31;5054834;28;19957;-51
2021/12/13 10:40:18;;;;;;;;;;;;;;;14.89;100.00;102548.22;5073364;28;19920;-50
2021/12/13 10:43:10;;;;;;;;;;;;;;;15.08;100.00;102559.47;5072676;28;19927;-51
2021/12/13 10:45:40;;;;;;;;;;;;;;;15.19;100.00;102547.41;5071808;28;19925;-52
2021/12/13 10:48:08;;;;;;;;;;;;;;;14.87;100.00;102561.03;5072654;28;20336;-50
2021/12/13 10:50:33;;;;;;;;;;;;;;;14.91;100.00;102562.34;5072876;28;20294;-48
2021/12/13 10:52:59;;;;;;;;;;;;;;;14.94;100.00;102555.75;5073197;28;20014;-50
2021/12/13 10:55:27;;;;;;;;;;;;;;;15.08;100.00;102555.97;5055170;28;20254;-49
2021/12/13 10:57:52;;;;;;;;;;;;;;;14.89;100.00;102555.47;5072475;28;19927;-49
2021/12/13 11:00:21;;;;;;;;;;;;;;;15.20;100.00;102562.56;5071160;28;20038;-52
2021/12/13 11:02:50;;;;;;;;;;;;;;;15.23;100.00;102551.44;5072614;28;19920;-51
2021/12/13 11:05:17;;;;;;;;;;;;;;;15.11;100.00;102552.91;5072586;28;19920;-52
2021/12/13 11:07:43;;;;;;;;;;;;;;;14.81;100.00;102550.16;5070938;28;20361;-54
2021/12/13 11:10:12;;;;;;;;;;;;;;;14.91;100.00;102553.41;5068603;28;19931;-52
2021/12/13 11:12:40;;;;;;;;;;;;;;;14.83;100.00;102548.94;5054516;28;20355;-54
2021/12/13 11:15:08;;;;;;;;;;;;;;;15.03;100.00;102538.50;5071354;28;19952;-54
2021/12/13 11:17:34;;;;;;;;;;;;;;;14.81;100.00;102544.78;5054590;28;19927;-51
2021/12/13 11:20:05;;;;;;;;;;;;;;;14.92;100.00;102547.00;5071516;28;19917;-48
2021/12/13 11:22:31;;;;;;;;;;;;;;;14.76;100.00;102545.31;5073409;28;19954;-48
2021/12/13 11:24:59;;;;;;;;;;;;;;;14.69;100.00;102550.53;5072453;28;19920;-52
2021/12/13 11:27:31;;;;;;;;;;;;;;;14.99;100.00;102556.06;5074004;28;20433;-54
2021/12/13 11:29:57;;;;;;;;;;;;;;;15.08;100.00;102553.28;5076618;28;19952;-50
2021/12/13 11:32:34;;;;;;;;;;;;;;;14.86;100.00;102542.38;5075856;28;19962;-52
2021/12/13 11:35:06;;;;;;;;;;;;;;;15.25;100.00;102544.00;5076104;28;19943;-50
2021/12/13 11:37:50;;;;;;;;;;;;;;;15.29;100.00;102539.91;5075201;28;20001;-52
2021/12/13 11:40:15;;;;;;;;;;;;;;;15.15;100.00;102535.34;5076443;28;19921;-53
2021/12/13 11:43:07;;;;;;;;;;;;;;;14.89;100.00;102539.31;5076082;28;19921;-52
2021/12/13 11:45:51;;;;;;;;;;;;;;;15.44;100.00;102541.75;5067563;28;20019;-51
2021/12/13 11:48:17;;;;;;;;;;;;;;;15.32;100.00;102538.69;5075631;28;20000;-60
2021/12/13 11:50:42;;;;;;;;;;;;;;;15.23;100.00;102540.66;5075878;28;20007;-54
2021/12/13 11:53:26;;;;;;;;;;;;;;;15.64;100.00;102542.03;5075905;28;20387;-53
2021/12/13 11:55:54;;;;;;;;;;;;;;;15.28;100.00;102549.03;5075920;28;19920;-50
2021/12/13 11:58:38;;;;;;;;;;;;;;;15.49;100.00;102540.19;5074533;28;19936;-51
2021/12/13 12:01:23;;;;;;;;;;;;;;;15.28;100.00;102537.38;5075145;28;19927;-50
2021/12/13 12:04:06;;;;;;;;;;;;;;;15.74;100.00;102529.09;5075658;28;19927;-53
2021/12/13 12:07:04;;;;;;;;;;;;;;;15.62;100.00;102522.50;5074349;28;19920;-53
2021/12/13 12:09:48;;;;;;;;;;;;;;;15.52;100.00;102530.91;5074382;28;19971;-55
2021/12/13 12:12:22;;;;;;;;;;;;;;;15.40;100.00;102532.38;5075526;28;20291;-53
2021/12/13 12:14:49;;;;;;;;;;;;;;;15.39;100.00;102538.78;5074197;28;19920;-54
2021/12/13 12:17:16;;;;;;;;;;;;;;;15.39;100.00;102531.56;5075818;28;19943;-53
2021/12/13 12:19:41;;;;;;;;;;;;;;;15.55;100.00;102533.22;5075013;28;19970;-54
2021/12/13 12:22:20;;;;;;;;;;;;;;;15.46;100.00;102539.72;5073839;28;19929;-50
2021/12/13 12:24:45;;;;;;;;;;;;;;;15.53;100.00;102540.66;5073607;28;19974;-51
2021/12/13 12:27:16;;;;;;;;;;;;;;;15.29;100.00;102541.75;5075827;28;19963;-49
2021/12/13 12:30:01;;;;;;;;;;;;;;;15.36;100.00;102544.56;5075174;28;20011;-51
2021/12/13 12:32:29;;;;;;;;;;;;;;;15.37;100.00;102538.13;5070823;28;19927;-52
2021/12/13 12:34:54;;;;;;;;;;;;;;;15.40;100.00;102541.31;5056812;28;19917;-52
2021/12/13 12:37:43;;;;;;;;;;;;;;;15.39;100.00;102541.47;5073963;28;20088;-53
2021/12/13 12:40:08;;;;;;;;;;;;;;;15.39;100.00;102536.09;5063821;28;19921;-48
2021/12/13 12:42:43;;;;;;;;;;;;;;;15.67;100.00;102533.56;5074147;28;19927;-52
2021/12/13 12:45:15;;;;;;;;;;;;;;;15.82;100.00;102533.53;5074375;28;19936;-53
2021/12/13 12:47:40;;;;;;;;;;;;;;;16.01;100.00;102528.59;5074581;28;19928;-52